createdAt,value
2023-04-23T07:10:00.456Z,16.49
2023-04-23T07:12:33.739Z,16.72
2023-04-23T07:15:02.653Z,17.03
2023-04-23T07:17:29.303Z,17.31
2023-04-23T07:19:56.149Z,17.54
2023-04-23T07:22:25.730Z,17.76
2023-04-23T07:24:57.928Z,17.95
2023-04-23T07:27:25.588Z,18.13
2023-04-23T07:30:01.427Z,18.29
2023-04-23T07:32:32.470Z,18.39
2023-04-23T07:34:59.079Z,18.56
2023-04-23T07:37:28.281Z,18.75
2023-04-23T07:39:57.484Z,18.93
2023-04-23T07:42:24.054Z,19.13
2023-04-23T07:44:53.147Z,19.31
2023-04-23T07:47:22.136Z,19.48
2023-04-23T07:49:56.952Z,19.63
2023-04-23T07:52:26.107Z,19.78
2023-04-23T07:54:52.901Z,19.87
2023-04-23T07:57:21.716Z,19.95
2023-04-23T07:59:57.052Z,20.10
2023-04-23T08:02:27.002Z,20.22
2023-04-23T08:04:56.134Z,20.31
2023-04-23T08:07:24.890Z,20.38
2023-04-23T08:10:02.118Z,20.45
2023-04-23T08:12:35.095Z,20.57
2023-04-23T08:15:04.449Z,20.71
2023-04-23T08:17:38.947Z,20.75
2023-04-23T08:20:09.009Z,20.82
2023-04-23T08:22:38.063Z,20.93
2023-04-23T08:25:05.423Z,20.98
2023-04-23T08:27:39.053Z,21.07
2023-04-23T08:30:11.273Z,21.17
2023-04-23T08:32:43.601Z,21.19
2023-04-23T08:35:17.938Z,21.15
2023-04-23T08:37:44.961Z,21.20
2023-04-23T08:40:16.904Z,21.30
2023-04-23T08:42:54.653Z,21.41
2023-04-23T08:45:25.561Z,21.53
2023-04-23T08:48:02.461Z,21.56
2023-04-23T08:50:32.664Z,21.60
2023-04-23T08:53:44.033Z,21.67
2023-04-23T08:56:13.924Z,21.81
2023-04-23T08:58:43.279Z,21.87
2023-04-23T09:01:10.294Z,21.83
2023-04-23T09:03:37.480Z,21.74
2023-04-23T09:06:15.350Z,21.60
2023-04-23T09:08:42.005Z,21.50
2023-04-23T09:11:14.669Z,21.49
2023-04-23T09:13:41.246Z,21.46
2023-04-23T09:16:10.085Z,21.40
2023-04-23T09:18:47.379Z,21.31
2023-04-23T09:21:18.591Z,21.25
2023-04-23T09:23:52.889Z,21.23
2023-04-23T09:26:26.345Z,21.28
2023-04-23T09:28:53.253Z,21.31
2023-04-23T09:35:09.535Z,21.33
2023-04-23T09:37:55.348Z,21.27
2023-04-23T09:40:26.764Z,21.29
2023-04-23T09:42:56.198Z,21.36
2023-04-23T09:45:26.150Z,21.46
2023-04-23T09:47:59.526Z,21.57
2023-04-23T09:50:44.981Z,21.56
2023-04-23T09:53:15.572Z,21.50
2023-04-23T09:55:44.361Z,21.40
2023-04-23T09:58:15.530Z,21.32
2023-04-23T10:00:48.206Z,21.30
2023-04-23T10:03:15.194Z,21.45
2023-04-23T10:06:00.344Z,21.46
2023-04-23T10:08:33.968Z,21.50
2023-04-23T10:11:19.871Z,21.58
2023-04-23T10:13:50.740Z,21.67
2023-04-23T10:16:25.237Z,21.55
2023-04-23T10:19:01.554Z,21.53
2023-04-23T10:21:46.282Z,21.63
2023-04-23T10:24:21.348Z,21.66
2023-04-23T10:26:49.365Z,21.78
2023-04-23T10:29:17.661Z,21.84
2023-04-23T10:31:45.521Z,21.81
2023-04-23T10:34:14.955Z,21.87
2023-04-23T10:36:46.140Z,21.93
2023-04-23T10:41:46.473Z,22.09
2023-04-23T10:44:38.589Z,22.13
2023-04-23T10:47:14.362Z,22.11
2023-04-23T10:49:44.075Z,22.09
2023-04-23T10:52:20.042Z,22.17
2023-04-23T10:54:56.221Z,22.30
2023-04-23T10:57:25.539Z,22.32
2023-04-23T10:59:54.181Z,22.35
2023-04-23T11:02:24.168Z,22.31
2023-04-23T11:05:06.377Z,22.24
2023-04-23T11:07:35.118Z,22.27
2023-04-23T11:10:17.226Z,22.32
2023-04-23T11:12:48.648Z,22.33
2023-04-23T11:15:18.728Z,22.35
2023-04-23T11:17:47.619Z,22.38
2023-04-23T11:20:21.337Z,22.37
2023-04-23T11:22:49.700Z,22.23
2023-04-23T11:25:26.448Z,22.23
2023-04-23T11:27:54.839Z,22.20
2023-04-23T11:30:43.485Z,22.32
2023-04-23T11:33:16.666Z,22.34
2023-04-23T11:36:16.706Z,22.39
2023-04-23T11:38:46.061Z,22.37
2023-04-23T11:41:13.331Z,22.42
2023-04-23T11:43:46.629Z,22.59
2023-04-23T11:46:14.372Z,22.55
2023-04-23T11:48:43.689Z,22.53
2023-04-23T11:51:15.417Z,22.47
2023-04-23T11:53:51.321Z,22.43
2023-04-23T11:56:19.450Z,22.37
2023-04-23T11:59:00.509Z,22.23
2023-04-23T12:01:27.500Z,22.29
2023-04-23T12:03:54.504Z,22.33
2023-04-23T12:06:21.217Z,22.36
2023-04-23T12:08:48.078Z,22.34
2023-04-23T12:11:14.643Z,22.28
2023-04-23T12:13:42.293Z,22.23
2023-04-23T12:16:11.466Z,22.15
2023-04-23T12:18:43.578Z,22.14
2023-04-23T12:21:12.961Z,22.06
2023-04-23T12:23:43.932Z,21.99
2023-04-23T12:26:11.917Z,21.95
2023-04-23T12:28:58.436Z,21.90
2023-04-23T12:31:29.069Z,21.83
2023-04-23T12:34:02.878Z,21.80
2023-04-23T12:36:32.904Z,21.78
2023-04-23T12:39:42.945Z,21.70
2023-04-23T12:42:14.700Z,21.63
2023-04-23T12:44:46.969Z,21.57
2023-04-23T12:47:17.002Z,21.50
2023-04-23T12:49:44.117Z,21.49
2023-04-23T12:52:15.366Z,21.46
2023-04-23T12:54:44.281Z,21.47
2023-04-23T12:57:12.334Z,21.49
2023-04-23T12:59:44.115Z,21.48
2023-04-23T13:02:14.817Z,21.46
2023-04-23T13:04:43.584Z,21.51
2023-04-23T13:07:10.253Z,21.52
2023-04-23T14:25:14.809Z,22.03
2023-04-23T14:27:49.378Z,22.07
2023-04-23T14:30:20.097Z,22.09
2023-04-23T14:32:49.746Z,22.07
2023-04-23T14:35:24.555Z,22.07
2023-04-23T14:37:58.707Z,22.05
2023-04-23T14:40:25.150Z,22.05
2023-04-23T14:42:56.949Z,22.03
2023-04-23T14:45:30.675Z,22.05
2023-04-23T14:48:05.705Z,22.05
2023-04-23T14:50:33.557Z,22.01
2023-04-23T14:53:02.992Z,21.98
2023-04-23T14:55:34.483Z,21.97
2023-04-23T14:58:03.348Z,21.95
2023-04-23T15:00:32.977Z,21.95
2023-04-23T15:03:07.841Z,21.94
2023-04-23T15:05:37.575Z,21.90
2023-04-23T15:08:06.513Z,21.86
2023-04-23T15:10:36.091Z,21.87
2023-04-23T15:13:08.701Z,21.85
2023-04-23T15:15:45.278Z,21.83
2023-04-23T15:18:16.445Z,21.84
2023-04-23T15:21:03.128Z,21.82
2023-04-23T15:23:30.999Z,21.84
2023-04-23T15:26:00.071Z,21.86
2023-04-23T15:58:21.676Z,21.81
2023-04-23T16:00:48.338Z,21.80
2023-04-23T16:03:17.277Z,21.80
2023-04-23T16:05:47.434Z,21.79
2023-04-23T16:08:16.771Z,21.78
2023-04-23T16:10:43.197Z,21.78
2023-04-23T16:13:14.279Z,21.78
2023-04-23T16:15:44.393Z,21.74
2023-04-23T16:18:13.398Z,21.72
2023-04-23T16:20:39.920Z,21.71
2023-04-23T16:23:08.966Z,21.70
2023-04-23T16:25:37.840Z,21.69
2023-04-23T16:28:04.673Z,21.70
2023-04-23T16:30:31.317Z,21.70
2023-04-23T17:22:58.194Z,21.01
2023-04-23T17:25:26.559Z,20.97
2023-04-23T17:27:57.968Z,20.88
2023-04-23T17:30:27.486Z,20.81
2023-04-23T17:32:54.320Z,20.75
2023-04-23T17:35:23.407Z,20.69
2023-04-23T17:37:52.521Z,20.58
2023-04-23T17:40:19.419Z,20.57
2023-04-23T17:42:46.560Z,20.63
2023-04-23T17:45:13.389Z,20.62
2023-04-23T17:47:58.453Z,20.61
2023-04-23T17:50:27.667Z,20.62
2023-04-23T17:52:54.262Z,20.63
2023-04-23T17:55:21.382Z,20.59
2023-04-23T17:57:48.292Z,20.52
2023-04-23T18:00:16.910Z,20.43
2023-04-23T18:02:44.573Z,20.34
2023-04-23T18:05:16.090Z,20.26
2023-04-23T18:07:43.917Z,20.24
2023-04-23T18:10:11.643Z,20.17
2023-04-23T18:12:48.606Z,20.09
2023-04-23T18:15:38.458Z,20.02
2023-04-23T18:18:05.807Z,19.93
2023-04-23T18:20:37.620Z,19.86
2023-04-23T18:23:05.938Z,19.77
2023-04-23T18:25:32.914Z,19.68
2023-04-23T18:28:00.654Z,19.56
2023-04-23T18:30:27.533Z,19.46
2023-04-23T18:33:40.963Z,19.38
2023-04-23T18:36:31.037Z,19.28
2023-04-23T18:38:58.267Z,19.16
2023-04-23T18:41:59.104Z,19.08
2023-04-23T18:44:28.227Z,18.98
2023-04-23T18:46:55.274Z,18.91
2023-04-23T18:49:33.539Z,18.85
2023-04-23T18:52:01.505Z,18.79
2023-04-23T18:54:30.318Z,18.73
2023-04-23T18:56:57.628Z,18.67
2023-04-23T18:59:48.005Z,18.60
2023-04-23T19:02:24.684Z,18.54
2023-04-23T19:05:01.634Z,18.46
2023-04-23T19:07:49.708Z,18.41
2023-04-23T19:10:17.006Z,18.35
2023-04-23T19:12:44.172Z,18.30
2023-04-23T19:15:11.212Z,18.29
2023-04-23T19:17:38.128Z,18.27
2023-04-23T19:20:14.381Z,18.26
2023-04-23T19:22:42.319Z,18.21
2023-04-23T19:25:09.691Z,18.16
2023-04-23T19:27:41.024Z,18.19
2023-04-23T19:30:09.704Z,18.26
2023-04-23T19:32:38.642Z,18.25
2023-04-23T19:35:12.124Z,18.21
2023-04-23T19:37:41.528Z,18.15
2023-04-23T19:40:09.961Z,18.11
2023-04-23T19:42:36.557Z,18.04
2023-04-23T19:45:07.115Z,17.98
2023-04-23T19:47:38.001Z,17.93
2023-04-23T19:50:10.123Z,17.88
2023-04-23T19:52:39.533Z,17.84
2023-04-23T19:55:09.406Z,17.78
2023-04-23T19:57:40.210Z,17.72
2023-04-23T20:00:11.365Z,17.66
2023-04-23T20:02:42.836Z,17.60
2023-04-23T20:05:09.944Z,17.54
2023-04-23T20:07:37.647Z,17.49
2023-04-23T20:10:09.802Z,17.44
2023-04-23T20:12:36.729Z,17.39
2023-04-23T20:15:05.036Z,17.34
2023-04-23T20:17:56.829Z,17.30
2023-04-23T20:20:31.149Z,17.25
2023-04-23T20:22:58.579Z,17.20
2023-04-23T20:25:25.967Z,17.14
2023-04-23T20:27:56.279Z,17.08
2023-04-23T20:30:23.224Z,17.02
2023-04-23T20:32:50.648Z,16.97
2023-04-23T20:35:18.690Z,16.92
2023-04-23T20:37:46.008Z,16.88
2023-04-23T20:40:14.162Z,16.85
2023-04-23T20:42:41.918Z,16.79
2023-04-23T20:45:12.562Z,16.74
2023-04-23T20:47:39.524Z,16.67
2023-04-23T20:50:06.841Z,16.62
2023-04-23T20:52:35.649Z,16.59
2023-04-23T20:55:03.171Z,16.56
2023-04-23T20:57:33.410Z,16.53
2023-04-23T21:00:13.979Z,16.49
2023-04-23T21:02:47.560Z,16.44
2023-04-23T21:05:21.644Z,16.38
2023-04-23T21:07:53.947Z,16.30
2023-04-23T21:10:39.355Z,16.27
2023-04-23T21:13:12.233Z,16.24
2023-04-23T21:15:48.382Z,16.19
2023-04-23T21:18:20.932Z,16.16
2023-04-23T21:20:58.690Z,16.11
2023-04-23T21:23:28.067Z,16.08
2023-04-23T21:26:09.780Z,16.04
2023-04-23T21:28:44.111Z,16.06
2023-04-23T21:31:21.674Z,16.09
2023-04-23T21:33:48.616Z,16.10
2023-04-23T21:36:15.564Z,16.11
2023-04-23T21:38:42.432Z,16.12
2023-04-23T21:41:11.749Z,16.05
2023-04-23T21:43:41.634Z,15.98
2023-04-23T21:46:08.679Z,15.93
2023-04-23T21:48:36.190Z,15.91
2023-04-23T21:51:03.239Z,15.92
